Time;durP1;ratioP1;P1;durP2;ratioP2;P2;SDS_P1;SDS_P2;PMS_P1;PMS_P2;Temp;Humidity;BMP_temperature;BMP_pressure;BME280_temperature;BME280_humidity;BME280_pressure;Samples;Min_cycle;Max_cycle;Signal;HPM_P1;HPM_P2
2023/04/25 00:01:56;;;;;;;0.60;0.60;;;;;;;12.27;100.00;96199.81;5026779;28;20061;-61
2023/04/25 00:04:23;;;;;;;0.60;0.60;;;;;;;12.79;100.00;96265.50;5026476;28;20561;-60
2023/04/25 00:06:50;;;;;;;0.50;0.50;;;;;;;12.72;100.00;96251.66;5026783;28;20060;-62
2023/04/25 00:09:16;;;;;;;0.60;0.60;;;;;;;12.89;100.00;96267.47;5027021;28;20056;-60
2023/04/25 00:11:44;;;;;;;0.60;0.60;;;;;;;12.52;100.00;96194.19;5026999;28;20481;-61
2023/04/25 00:14:10;;;;;;;0.50;0.50;;;;;;;12.64;100.00;96252.88;5016739;28;20057;-61
2023/04/25 00:16:37;;;;;;;0.50;0.50;;;;;;;11.56;100.00;96176.16;5026452;28;20054;-60
2023/04/25 00:19:04;;;;;;;0.60;0.60;;;;;;;11.72;100.00;96245.91;5026645;28;20053;-60
2023/04/25 00:21:31;;;;;;;0.50;0.50;;;;;;;11.35;100.00;96215.00;5025302;28;20049;-60
2023/04/25 00:23:58;;;;;;;0.50;0.50;;;;;;;10.78;100.00;96119.13;5026407;28;20061;-60
2023/04/25 00:26:25;;;;;;;0.60;0.60;;;;;;;11.67;100.00;96232.44;5026031;28;20083;-60
2023/04/25 00:28:51;;;;;;;0.50;0.50;;;;;;;11.68;100.00;96239.59;5026115;28;20080;-60
2023/04/25 00:31:18;;;;;;;0.50;0.50;;;;;;;11.79;100.00;96234.84;5024819;28;20053;-60
2023/04/25 00:33:45;;;;;;;0.50;0.50;;;;;;;11.72;100.00;96201.53;5026238;28;20433;-60
2023/04/25 00:36:11;;;;;;;0.50;0.50;;;;;;;12.07;100.00;96237.56;5025917;28;20111;-62
2023/04/25 00:38:38;;;;;;;0.50;0.50;;;;;;;12.16;100.00;96216.53;5026247;28;20131;-60
2023/04/25 00:41:08;;;;;;;0.50;0.50;;;;;;;11.89;100.00;96167.41;5025525;28;20049;-60
2023/04/25 00:43:37;;;;;;;0.50;0.50;;;;;;;12.26;100.00;96209.34;5025851;28;20092;-59
2023/04/25 00:46:03;;;;;;;0.50;0.50;;;;;;;11.87;100.00;96165.03;5025611;28;20049;-60
2023/04/25 00:48:30;;;;;;;0.50;0.50;;;;;;;11.84;100.00;96151.16;5025713;28;20441;-61
2023/04/25 00:50:58;;;;;;;0.60;0.60;;;;;;;12.29;100.00;96211.31;5025916;28;20119;-59
2023/04/25 00:53:26;;;;;;;0.50;0.50;;;;;;;11.90;100.00;96149.59;5024295;28;20476;-60
2023/04/25 00:55:54;;;;;;;0.50;0.50;;;;;;;12.44;100.00;96204.53;5025973;28;20191;-60
2023/04/25 00:58:21;;;;;;;0.50;0.50;;;;;;;12.53;100.00;96201.31;5025891;28;20502;-60
2023/04/25 01:00:50;;;;;;;0.60;0.60;;;;;;;12.50;100.00;96197.38;5025703;28;20535;-61
2023/04/25 01:03:19;;;;;;;0.50;0.50;;;;;;;12.55;100.00;96193.38;5025807;28;20045;-60
2023/04/25 01:05:47;;;;;;;0.50;0.50;;;;;;;12.44;100.00;96165.63;5024201;28;20056;-60
2023/04/25 01:08:14;;;;;;;0.50;0.50;;;;;;;12.56;100.00;96187.44;5024173;28;20049;-61
2023/04/25 01:10:41;;;;;;;0.60;0.60;;;;;;;11.93;100.00;96087.72;5025606;28;20104;-60
2023/04/25 01:13:08;;;;;;;0.60;0.60;;;;;;;12.60;100.00;96179.84;5025560;28;20107;-61
2023/04/25 01:15:35;;;;;;;0.52;0.52;;;;;;;12.22;100.00;96107.84;5025536;28;20157;-59
2023/04/25 01:18:04;;;;;;;0.60;0.60;;;;;;;12.69;100.00;96171.88;5024172;28;20136;-60
2023/04/25 01:20:32;;;;;;;0.60;0.60;;;;;;;12.09;100.00;96065.88;5025449;28;20717;-60
2023/04/25 01:23:00;;;;;;;0.50;0.50;;;;;;;12.77;100.00;96167.84;5024242;28;20471;-61
2023/04/25 01:25:26;;;;;;;0.50;0.50;;;;;;;12.76;100.00;96160.72;5024998;28;20519;-59
2023/04/25 01:27:53;;;;;;;0.60;0.60;;;;;;;12.64;100.00;96135.38;5025063;28;20061;-60
2023/04/25 01:30:20;;;;;;;0.50;0.50;;;;;;;12.75;100.00;96153.59;5025369;28;20081;-59
2023/04/25 01:32:48;;;;;;;0.60;0.60;;;;;;;12.74;100.00;96151.22;5023565;28;20136;-60
2023/04/25 01:35:14;;;;;;;0.50;0.50;;;;;;;12.60;100.00;96152.06;5024929;28;20065;-61
2023/04/25 01:37:42;;;;;;;0.50;0.50;;;;;;;12.61;100.00;96153.66;5024673;28;20509;-61
2023/04/25 01:40:11;;;;;;;0.50;0.50;;;;;;;12.49;100.00;96154.09;5023435;28;20431;-60
2023/04/25 01:42:40;;;;;;;0.52;0.52;;;;;;;12.32;100.00;96152.22;5024549;28;20061;-60
2023/04/25 01:45:08;;;;;;;0.50;0.50;;;;;;;12.24;100.00;96150.66;5024766;28;20049;-61
2023/04/25 01:47:35;;;;;;;0.50;0.50;;;;;;;12.06;100.00;96111.09;5024522;28;20045;-60
2023/04/25 01:50:03;;;;;;;0.50;0.50;;;;;;;12.17;100.00;96147.91;5024866;28;20053;-61
2023/04/25 01:52:30;;;;;;;0.57;0.57;;;;;;;11.63;100.00;96073.56;5022254;28;20088;-60
2023/04/25 01:54:59;;;;;;;0.60;0.60;;;;;;;11.96;100.00;96134.91;5024825;28;20080;-61
2023/04/25 01:57:25;;;;;;;0.50;0.50;;;;;;;12.01;100.00;96142.78;5024073;28;20088;-60
2023/04/25 01:59:59;;;;;;;0.60;0.60;;;;;;;11.94;100.00;96126.19;5024455;28;20140;-60
2023/04/25 02:02:26;;;;;;;0.50;0.50;;;;;;;12.00;100.00;96140.41;5024741;28;20123;-60
2023/04/25 02:04:54;;;;;;;0.50;0.50;;;;;;;11.99;100.00;96147.19;5024750;28;20136;-62
2023/04/25 02:07:20;;;;;;;0.55;0.55;;;;;;;11.64;100.00;96117.53;5024216;28;20050;-60
2023/04/25 02:09:47;;;;;;;0.50;0.50;;;;;;;12.04;100.00;96147.53;5023112;28;20053;-59
2023/04/25 02:12:14;;;;;;;0.50;0.50;;;;;;;11.91;100.00;96126.19;5024599;28;20053;-61
2023/04/25 02:14:40;;;;;;;0.60;0.60;;;;;;;11.82;100.00;96111.94;5024402;28;20091;-60
2023/04/25 02:17:07;;;;;;;0.50;0.50;;;;;;;11.99;100.00;96144.41;5023967;28;20058;-61
2023/04/25 02:19:34;;;;;;;0.50;0.50;;;;;;;12.04;100.00;96146.78;5024271;28;20107;-61
2023/04/25 02:22:01;;;;;;;0.50;0.50;;;;;;;12.02;100.00;96154.69;5024093;28;20136;-60
2023/04/25 02:24:27;;;;;;;0.50;0.50;;;;;;;11.97;100.00;96157.88;5024222;28;20479;-61
2023/04/25 02:26:55;;;;;;;0.50;0.50;;;;;;;11.83;100.00;96130.97;5024216;28;20111;-59
2023/04/25 02:29:23;;;;;;;0.50;0.50;;;;;;;12.05;100.00;96148.34;5023991;28;20138;-60
2023/04/25 02:31:49;;;;;;;0.60;0.60;;;;;;;11.94;100.00;96131.72;5024050;28;20096;-60
2023/04/25 02:34:16;;;;;;;0.55;0.55;;;;;;;11.67;100.00;96104.84;5024268;28;20187;-60
2023/04/25 02:36:43;;;;;;;0.50;0.50;;;;;;;12.03;100.00;96139.63;5021572;28;20532;-60
2023/04/25 02:39:10;;;;;;;0.50;0.50;;;;;;;11.75;100.00;96095.31;5023384;28;20128;-60
2023/04/25 02:41:37;;;;;;;0.50;0.50;;;;;;;12.14;100.00;96152.28;5022959;28;20054;-60
2023/04/25 02:44:03;;;;;;;0.50;0.50;;;;;;;12.13;100.00;96152.69;5023148;28;20436;-60
2023/04/25 02:46:30;;;;;;;0.60;0.60;;;;;;;11.89;100.00;96106.38;5023451;28;20137;-60
2023/04/25 02:49:06;;;;;;;0.60;0.60;;;;;;;12.17;100.00;96150.69;5023155;28;20059;-60
2023/04/25 02:51:32;;;;;;;0.60;0.60;;;;;;;12.22;100.00;96136.38;4822620;28;5001779;-61
2023/04/25 02:53:59;;;;;;;0.55;0.55;;;;;;;12.27;100.00;96149.84;5002541;28;20107;-60
2023/04/25 02:56:26;;;;;;;0.60;0.60;;;;;;;12.30;100.00;96153.81;5004354;28;20073;-60
2023/04/25 02:58:53;;;;;;;0.50;0.50;;;;;;;12.30;100.00;96149.03;5002424;28;20062;-60
2023/04/25 03:01:20;;;;;;;0.50;0.50;;;;;;;12.23;100.00;96154.63;5004444;28;20050;-61
2023/04/25 03:03:47;;;;;;;0.50;0.50;;;;;;;12.20;100.00;96155.44;5004413;28;20463;-60
2023/04/25 03:06:15;;;;;;;0.50;0.50;;;;;;;12.12;100.00;96143.56;5008082;28;20049;-60
2023/04/25 03:08:42;;;;;;;0.50;0.50;;;;;;;11.48;100.00;96063.66;5008182;28;20065;-60
2023/04/25 03:11:09;;;;;;;0.50;0.50;;;;;;;11.85;100.00;96123.03;5008252;28;20054;-60
2023/04/25 03:13:36;;;;;;;0.60;0.60;;;;;;;12.04;100.00;96146.78;5007528;28;20050;-59
2023/04/25 03:16:02;;;;;;;0.43;0.43;;;;;;;11.99;100.00;96155.50;5027690;28;20136;-59
2023/04/25 03:18:29;;;;;;;0.55;0.55;;;;;;;11.97;100.00;96157.88;5025522;28;20049;-60
2023/04/25 03:20:56;;;;;;;0.50;0.50;;;;;;;11.93;100.00;96155.09;5027741;28;20095;-61
2023/04/25 03:23:22;;;;;;;0.50;0.50;;;;;;;11.93;100.00;96154.34;5026101;28;20049;-60
2023/04/25 03:25:49;;;;;;;0.50;0.50;;;;;;;11.77;100.00;96156.75;5027473;28;20053;-61
2023/04/25 03:28:16;;;;;;;0.50;0.50;;;;;;;11.75;100.00;96134.16;5026205;28;20088;-59
2023/04/25 03:30:42;;;;;;;0.50;0.50;;;;;;;11.86;100.00;96148.78;5027881;28;20053;-60
2023/04/25 03:33:09;;;;;;;0.50;0.50;;;;;;;11.86;100.00;96146.00;5027488;28;20104;-60
2023/04/25 03:35:36;;;;;;;0.50;0.50;;;;;;;11.77;100.00;96131.78;5027633;28;20136;-60
2023/04/25 03:38:02;;;;;;;0.50;0.50;;;;;;;11.93;100.00;96151.56;5026721;28;20057;-59
2023/04/25 03:40:29;;;;;;;0.50;0.50;;;;;;;11.95;100.00;96149.97;5027505;28;20057;-60
2023/04/25 03:42:56;;;;;;;0.50;0.50;;;;;;;11.94;100.00;96142.03;5026795;28;20534;-59
2023/04/25 03:45:22;;;;;;;0.50;0.50;;;;;;;11.96;100.00;96136.88;5027092;28;20115;-61
2023/04/25 03:47:49;;;;;;;0.50;0.50;;;;;;;11.88;100.00;96127.78;5025515;28;20052;-61
2023/04/25 03:50:16;;;;;;;0.50;0.50;;;;;;;11.96;100.00;96154.34;5025094;28;20081;-62
2023/04/25 03:52:43;;;;;;;0.50;0.50;;;;;;;11.91;100.00;96145.59;5025383;28;20354;-60
2023/04/25 03:55:10;;;;;;;0.50;0.50;;;;;;;12.16;100.00;96165.75;5026359;28;20500;-61
2023/04/25 03:57:36;;;;;;;0.50;0.50;;;;;;;12.16;100.00;96155.44;5025481;28;20064;-60
2023/04/25 04:00:04;;;;;;;0.50;0.50;;;;;;;12.18;100.00;96147.53;5025812;28;20053;-61
2023/04/25 04:02:31;;;;;;;0.50;0.50;;;;;;;12.10;100.00;96136.81;5005451;28;20049;-60
2023/04/25 04:04:58;;;;;;;0.50;0.50;;;;;;;12.26;100.00;96148.28;5006668;28;20472;-62
2023/04/25 04:07:25;;;;;;;0.50;0.50;;;;;;;12.26;100.00;96145.50;5006535;28;20142;-60
2023/04/25 04:09:51;;;;;;;0.50;0.50;;;;;;;12.31;100.00;96156.19;5006532;28;20056;-60
2023/04/25 04:12:18;;;;;;;0.60;0.60;;;;;;;12.36;100.00;96157.75;5006942;28;20436;-60
2023/04/25 04:14:44;;;;;;;0.50;0.50;;;;;;;11.83;100.00;96103.22;5016149;28;20064;-61
2023/04/25 04:17:11;;;;;;;0.50;0.50;;;;;;;12.35;100.00;96162.50;5024338;28;20485;-60
2023/04/25 04:19:38;;;;;;;0.52;0.52;;;;;;;12.50;100.00;96158.50;5026055;28;20512;-60
2023/04/25 04:22:04;;;;;;;0.52;0.52;;;;;;;12.33;100.00;96137.13;5026649;28;20432;-60
2023/04/25 04:24:31;;;;;;;0.50;0.50;;;;;;;12.40;100.00;96162.09;5024542;28;20094;-60
2023/04/25 04:26:58;;;;;;;0.60;0.60;;;;;;;12.51;100.00;96154.50;5026388;28;20132;-60
2023/04/25 04:29:25;;;;;;;0.60;0.60;;;;;;;12.66;100.00;96149.69;5025805;28;20767;-60
2023/04/25 04:31:52;;;;;;;0.50;0.50;;;;;;;11.93;100.00;96026.69;5026028;28;20060;-61
2023/04/25 04:34:19;;;;;;;0.50;0.50;;;;;;;12.60;100.00;96138.19;5024977;28;20048;-61
2023/04/25 04:36:46;;;;;;;0.50;0.50;;;;;;;12.73;100.00;96150.41;5024894;28;20053;-61
2023/04/25 04:39:13;;;;;;;0.52;0.52;;;;;;;12.80;100.00;96146.81;5014354;28;20093;-61
2023/04/25 04:41:40;;;;;;;0.60;0.60;;;;;;;12.98;100.00;96144.69;5024522;28;20085;-62
2023/04/25 04:44:08;;;;;;;0.50;0.50;;;;;;;12.76;100.00;96105.13;5025659;28;20060;-61
2023/04/25 04:46:41;;;;;;;0.50;0.50;;;;;;;12.97;100.00;96104.19;5026136;28;20533;-62
2023/04/25 04:49:09;;;;;;;0.60;0.60;;;;;;;13.36;100.00;96144.44;5024087;28;20516;-62
2023/04/25 04:51:36;;;;;;;0.60;0.60;;;;;;;13.31;100.00;96114.28;5025990;28;20049;-59
2023/04/25 04:54:03;;;;;;;0.60;0.60;;;;;;;13.76;100.00;96142.09;5021539;28;20123;-62
2023/04/25 04:56:30;;;;;;;0.60;0.60;;;;;;;13.95;100.00;96141.50;5005631;28;20085;-60
2023/04/25 04:58:57;;;;;;;0.60;0.60;;;;;;;13.32;100.00;96054.69;5004394;28;20058;-60
2023/04/25 05:01:25;;;;;;;0.57;0.57;;;;;;;13.70;99.55;96098.00;5005731;28;20077;-61
2023/04/25 05:03:52;;;;;;;0.52;0.52;;;;;;;14.10;99.59;96148.50;5004401;28;20062;-61
2023/04/25 05:06:20;;;;;;;0.60;0.60;;;;;;;14.14;97.84;96138.09;5005845;28;20045;-62
2023/04/25 05:08:47;;;;;;;0.60;0.60;;;;;;;14.11;97.68;96127.78;5005246;28;20042;-60
2023/04/25 05:11:13;;;;;;;0.60;0.60;;;;;;;14.30;96.32;96146.69;5005830;28;20053;-60
2023/04/25 05:13:40;;;;;;;0.60;0.60;;;;;;;14.39;96.38;96141.41;5005682;28;20058;-60
2023/04/25 05:16:07;;;;;;;0.55;0.55;;;;;;;14.55;94.43;96144.38;5025456;28;20063;-61
2023/04/25 05:18:33;;;;;;;0.60;0.60;;;;;;;14.37;94.01;96143.84;5025526;28;20140;-62
2023/04/25 05:21:00;;;;;;;0.70;0.70;;;;;;;14.20;92.80;96089.06;5023886;28;20061;-61
2023/04/25 05:23:27;;;;;;;0.60;0.60;;;;;;;12.78;92.49;95858.22;5025113;28;20417;-62
2023/04/25 05:25:54;;;;;;;0.60;0.60;;;;;;;14.74;91.13;96135.38;5025164;28;20053;-61
2023/04/25 05:28:21;;;;;;;0.60;0.60;;;;;;;14.70;91.63;96148.59;5024199;28;20049;-62
2023/04/25 05:30:48;;;;;;;0.60;0.60;;;;;;;14.86;91.31;96134.78;5024607;28;20057;-60
2023/04/25 05:33:15;;;;;;;0.68;0.68;;;;;;;14.98;89.57;96137.03;5025222;28;20115;-60
2023/04/25 05:35:42;;;;;;;0.60;0.60;;;;;;;14.87;87.03;96137.16;5003566;28;20073;-61
2023/04/25 05:38:08;;;;;;;0.60;0.60;;;;;;;14.61;86.10;96022.88;5006640;28;20062;-65
2023/04/25 05:40:35;;;;;;;0.70;0.70;;;;;;;14.92;86.40;96077.38;5009702;28;20665;-67
2023/04/25 05:43:02;;;;;;;0.60;0.60;;;;;;;15.28;86.81;96130.59;4999925;28;20137;-58
2023/04/25 05:45:28;;;;;;;0.60;0.60;;;;;;;15.24;85.80;96080.41;4992178;28;20524;-65
2023/04/25 05:47:55;;;;;;;0.70;0.70;;;;;;;15.69;86.21;96117.16;5003520;28;20103;-62
2023/04/25 05:50:22;;;;;;;0.70;0.70;;;;;;;15.23;85.50;96031.41;4984845;28;20477;-65
2023/04/25 05:52:49;;;;;;;0.70;0.70;;;;;;;15.84;84.99;96138.81;4986813;28;20046;-66
2023/04/25 05:55:16;;;;;;;0.80;0.80;;;;;;;15.63;85.58;96088.94;4993872;28;20153;-61
2023/04/25 05:57:44;;;;;;;0.70;0.70;;;;;;;15.77;85.00;96116.63;4996305;28;20569;-63
2023/04/25 06:00:13;;;;;;;0.75;0.75;;;;;;;15.60;85.54;96078.63;4999893;28;20135;-61
2023/04/25 06:02:39;;;;;;;0.70;0.70;;;;;;;15.32;85.96;96023.28;5001920;28;20161;-61
2023/04/25 06:05:07;;;;;;;0.70;0.70;;;;;;;15.84;84.85;96055.03;5003331;28;20053;-64
2023/04/25 06:07:34;;;;;;;0.70;0.70;;;;;;;15.66;83.74;96037.84;4994545;28;20069;-63
2023/04/25 06:10:01;;;;;;;0.70;0.70;;;;;;;16.44;83.47;96124.50;4990510;28;20605;-61
2023/04/25 06:12:27;;;;;;;0.70;0.70;;;;;;;16.40;82.13;96103.41;5012206;28;20128;-65
2023/04/25 06:14:54;;;;;;;0.80;0.80;;;;;;;16.26;83.27;96068.16;5003895;28;20165;-63
2023/04/25 06:17:21;;;;;;;0.70;0.70;;;;;;;14.90;83.51;95929.22;5002416;28;20157;-63
2023/04/25 06:19:47;;;;;;;0.70;0.70;;;;;;;16.41;82.13;96116.94;5004351;28;20072;-59
2023/04/25 06:22:14;;;;;;;0.80;0.80;;;;;;;16.37;83.08;96113.44;5001154;28;20086;-65
2023/04/25 06:24:41;;;;;;;0.70;0.70;;;;;;;16.01;81.25;96009.19;4986611;28;20054;-61
2023/04/25 06:27:07;;;;;;;0.70;0.70;;;;;;;16.80;81.09;96076.19;4987796;28;20090;-61
2023/04/25 06:29:34;;;;;;;0.70;0.70;;;;;;;16.27;79.38;95982.31;4996362;28;20050;-64
2023/04/25 06:32:00;;;;;;;0.70;0.70;;;;;;;17.16;78.09;96082.53;4991943;28;20084;-65
2023/04/25 06:34:27;;;;;;;0.80;0.80;;;;;;;16.51;78.89;96115.97;4992089;28;20082;-63
2023/04/25 06:36:54;;;;;;;0.70;0.70;;;;;;;16.34;82.53;96117.06;4997676;28;20161;-63
2023/04/25 06:39:23;;;;;;;0.70;0.70;;;;;;;16.29;81.63;96175.50;4982405;28;20057;-64
2023/04/25 06:41:49;;;;;;;0.70;0.70;;;;;;;16.30;80.62;96110.78;4983893;28;20149;-61
2023/04/25 06:44:16;;;;;;;0.60;0.60;;;;;;;15.70;81.09;96019.00;4982934;28;20101;-66
2023/04/25 06:46:43;;;;;;;0.70;0.70;;;;;;;14.98;81.46;95916.72;4991648;28;20057;-67
2023/04/25 06:49:09;;;;;;;0.70;0.70;;;;;;;14.17;81.62;95833.69;5002742;28;20056;-61
2023/04/25 06:51:36;;;;;;;0.70;0.70;;;;;;;15.67;85.79;96123.16;4998972;28;20050;-59
2023/04/25 06:54:04;;;;;;;0.73;0.73;;;;;;;15.50;87.55;96050.91;4993147;28;20391;-61
2023/04/25 06:56:31;;;;;;;0.70;0.70;;;;;;;16.43;86.35;96125.69;4992703;28;20058;-61
2023/04/25 06:59:00;;;;;;;0.65;0.65;;;;;;;15.35;86.19;96083.03;4996994;28;20057;-62
2023/04/25 07:01:26;;;;;;;0.60;0.60;;;;;;;15.30;89.59;96126.16;4995185;28;20046;-61
2023/04/25 07:03:53;;;;;;;0.70;0.70;;;;;;;14.58;90.30;96002.22;5001739;28;20053;-69
2023/04/25 07:06:20;;;;;;;0.70;0.70;;;;;;;14.46;92.76;96044.56;4999920;28;20452;-60
2023/04/25 07:08:47;;;;;;;0.70;0.70;;;;;;;14.92;94.63;96127.56;4999079;28;20046;-60
2023/04/25 07:11:14;;;;;;;0.70;0.70;;;;;;;14.66;97.68;96131.09;4997205;28;20048;-62
2023/04/25 07:13:40;;;;;;;0.70;0.70;;;;;;;12.80;93.23;95741.91;5009612;28;20088;-61
2023/04/25 07:16:07;;;;;;;0.68;0.68;;;;;;;14.99;95.49;96119.06;4992180;28;20206;-63
2023/04/25 07:18:34;;;;;;;0.60;0.60;;;;;;;15.92;94.24;96122.72;4979987;28;20111;-62
2023/04/25 07:21:01;;;;;;;0.70;0.70;;;;;;;16.04;86.25;96117.31;4805724;28;5002105;-62
2023/04/25 07:23:27;;;;;;;0.70;0.70;;;;;;;15.52;87.68;96071.59;5012571;28;20143;-62
2023/04/25 07:25:54;;;;;;;0.70;0.70;;;;;;;16.09;86.70;96111.19;4988383;28;20054;-64
2023/04/25 07:28:21;;;;;;;0.70;0.70;;;;;;;15.34;85.16;95965.06;4983904;28;20474;-62
2023/04/25 07:30:47;;;;;;;0.68;0.68;;;;;;;16.09;83.66;96105.63;4984507;28;20615;-67
2023/04/25 07:33:14;;;;;;;0.70;0.70;;;;;;;16.68;80.79;96110.44;4984509;28;20078;-64
2023/04/25 07:35:41;;;;;;;0.75;0.75;;;;;;;17.41;77.66;96105.13;4991414;28;20570;-62
2023/04/25 07:38:07;;;;;;;0.80;0.80;;;;;;;17.95;72.68;96104.16;5003164;28;20452;-61
2023/04/25 07:40:35;;;;;;;0.70;0.70;;;;;;;18.17;70.89;96101.53;5001558;28;20057;-61
2023/04/25 07:43:02;;;;;;;0.70;0.70;;;;;;;18.90;70.42;96098.63;5001791;28;20058;-63
2023/04/25 07:45:28;;;;;;;0.80;0.80;;;;;;;19.71;66.47;96100.84;4989391;28;20527;-57
2023/04/25 07:47:55;;;;;;;0.80;0.80;;;;;;;19.89;63.60;96095.41;4988951;28;20050;-59
2023/04/25 07:50:22;;;;;;;0.80;0.80;;;;;;;19.76;65.27;96046.91;4998019;28;20050;-61
2023/04/25 07:52:48;;;;;;;0.80;0.80;;;;;;;20.03;66.37;96083.69;4999169;28;20123;-61
2023/04/25 07:55:16;;;;;;;0.80;0.80;;;;;;;20.13;65.39;96088.13;5006296;28;20056;-64
2023/04/25 07:57:42;;;;;;;0.80;0.80;;;;;;;19.74;64.04;96088.69;4993130;28;20066;-61
2023/04/25 08:00:11;;;;;;;0.80;0.80;;;;;;;19.34;64.16;96086.41;5006403;28;20513;-59
2023/04/25 08:02:37;;;;;;;0.70;0.70;;;;;;;18.68;66.72;96010.72;4998755;28;20050;-58
2023/04/25 08:05:04;;;;;;;0.80;0.80;;;;;;;19.79;66.41;96052.38;5000106;28;20054;-59
2023/04/25 08:07:31;;;;;;;0.77;0.77;;;;;;;19.20;62.76;96088.84;4992356;28;20214;-64
2023/04/25 08:09:58;;;;;;;0.80;0.80;;;;;;;18.49;67.27;96081.84;4989732;28;20517;-61
2023/04/25 08:12:25;;;;;;;0.80;0.80;;;;;;;19.45;65.72;96049.53;4989554;28;20046;-60
2023/04/25 08:14:53;;;;;;;0.80;0.80;;;;;;;18.20;68.12;96038.97;5006331;28;20052;-62
2023/04/25 08:17:19;;;;;;;0.70;0.70;;;;;;;18.39;67.00;95934.28;5005730;28;20046;-62
2023/04/25 08:19:46;;;;;;;0.80;0.80;;;;;;;20.02;63.36;96070.84;5004555;28;20049;-60
2023/04/25 08:22:13;;;;;;;0.80;0.80;;;;;;;19.61;60.79;96079.50;4987518;28;20074;-61
2023/04/25 08:24:39;;;;;;;0.88;0.88;;;;;;;19.37;62.91;96077.09;5006213;28;20100;-61
2023/04/25 08:27:07;;;;;;;0.80;0.80;;;;;;;18.99;61.15;95921.91;4995905;28;20053;-63
2023/04/25 08:29:34;;;;;;;0.80;0.80;;;;;;;18.85;64.77;96067.50;5002759;28;20049;-61
2023/04/25 08:32:01;;;;;;;0.80;0.80;;;;;;;19.38;63.16;96025.28;5002816;28;20139;-62
2023/04/25 08:34:27;;;;;;;0.88;0.88;;;;;;;19.98;61.35;96075.81;5004545;28;20081;-60
2023/04/25 08:36:54;;;;;;;0.90;0.90;;;;;;;20.23;60.10;96033.56;5005410;28;20046;-61
2023/04/25 08:39:21;;;;;;;0.80;0.80;;;;;;;21.19;57.81;96063.22;5001681;28;20062;-62
2023/04/25 08:41:48;;;;;;;0.90;0.90;;;;;;;21.27;57.82;96064.50;5003300;28;20058;-62
2023/04/25 08:44:14;;;;;;;0.80;0.80;;;;;;;21.65;55.91;96045.19;5001242;28;20085;-62
2023/04/25 08:46:41;;;;;;;0.80;0.80;;;;;;;20.87;54.96;95979.19;5001411;28;20093;-62
2023/04/25 08:49:11;;;;;;;0.80;0.80;;;;;;;20.43;58.76;96062.13;4994029;28;20120;-62
2023/04/25 08:51:50;;;;;;;0.93;0.93;;;;;;;21.13;54.69;96059.44;5003669;28;20436;-61
2023/04/25 08:54:21;;;;;;;0.90;0.90;;;;;;;20.95;55.15;96070.59;5005146;28;20050;-70
2023/04/25 08:57:03;;;;;;;0.90;0.90;;;;;;;20.81;56.47;96043.00;5002318;28;20145;-61
2023/04/25 08:59:32;;;;;;;0.90;0.90;;;;;;;21.15;56.21;96051.28;5005417;28;20062;-63
2023/04/25 09:02:00;;;;;;;0.90;0.90;;;;;;;21.02;55.68;96070.34;5005509;28;20064;-62
2023/04/25 09:04:27;;;;;;;0.80;0.80;;;;;;;19.66;58.33;95958.13;5005395;28;20054;-62
2023/04/25 09:06:53;;;;;;;0.80;0.80;;;;;;;19.45;59.44;96033.47;5005891;28;20054;-62
2023/04/25 09:09:21;;;;;;;0.82;0.82;;;;;;;19.77;59.65;96043.63;5004298;28;20134;-61
2023/04/25 09:11:48;;;;;;;0.80;0.80;;;;;;;19.55;59.78;96014.69;5005671;28;20459;-62
2023/04/25 09:14:17;;;;;;;0.80;0.80;;;;;;;19.44;61.75;95986.94;5004955;28;20046;-59
2023/04/25 09:16:56;;;;;;;0.80;0.80;;;;;;;20.74;57.93;96040.44;5004949;28;20420;-61
2023/04/25 09:19:24;;;;;;;0.90;0.90;;;;;;;20.26;57.53;95908.91;5004393;28;20053;-60
2023/04/25 09:22:07;;;;;;;0.90;0.90;;;;;;;20.85;57.78;96038.00;5005312;28;20057;-59
2023/04/25 09:24:36;;;;;;;0.90;0.90;;;;;;;21.07;54.45;95999.31;5005412;28;20069;-63
2023/04/25 09:27:10;;;;;;;0.90;0.90;;;;;;;20.90;55.08;96012.06;5003682;28;20413;-59
2023/04/25 09:29:39;;;;;;;0.80;0.80;;;;;;;20.63;57.75;96031.63;5004737;28;20087;-59
2023/04/25 09:32:15;;;;;;;0.80;0.80;;;;;;;18.84;56.95;95713.16;5005188;28;20053;-60
2023/04/25 09:34:44;;;;;;;0.90;0.90;;;;;;;20.15;56.14;95956.34;5004819;28;20137;-61
2023/04/25 09:37:11;;;;;;;0.90;0.90;;;;;;;19.94;57.01;95954.28;4990566;28;20073;-61
2023/04/25 09:39:39;;;;;;;0.90;0.90;;;;;;;19.49;58.00;95910.53;4988456;28;20134;-60
2023/04/25 09:42:06;;;;;;;0.80;0.80;;;;;;;19.46;57.59;95891.78;5015052;28;20080;-58
2023/04/25 09:44:32;;;;;;;0.80;0.80;;;;;;;20.24;56.84;96018.25;5003631;28;20167;-60
2023/04/25 09:46:59;;;;;;;0.80;0.80;;;;;;;19.76;57.57;95923.25;5002469;28;20053;-64
2023/04/25 09:49:27;;;;;;;0.85;0.85;;;;;;;20.51;57.18;96024.84;5001813;28;20539;-60
2023/04/25 09:51:58;;;;;;;0.85;0.85;;;;;;;20.26;57.69;95963.13;4992513;28;20452;-59
2023/04/25 09:54:25;;;;;;;1.00;1.00;;;;;;;19.96;56.98;95875.91;5002862;28;20061;-62
2023/04/25 09:56:53;;;;;;;0.90;0.90;;;;;;;20.91;56.06;95996.75;5002278;28;20127;-63
2023/04/25 09:59:22;;;;;;;0.90;0.90;;;;;;;21.29;54.64;95994.41;5003671;28;20123;-62
2023/04/25 10:01:50;;;;;;;0.90;0.90;;;;;;;21.41;50.97;95995.50;5004612;28;20108;-60
2023/04/25 10:04:25;;;;;;;0.90;0.90;;;;;;;21.07;49.05;95992.91;4998855;28;20056;-58
2023/04/25 10:06:56;;;;;;;0.80;0.80;;;;;;;20.66;49.95;95991.31;5003086;28;20125;-57
2023/04/25 10:09:26;;;;;;;0.80;0.80;;;;;;;19.90;51.53;95925.53;4999639;28;20049;-63
2023/04/25 10:11:54;;;;;;;0.90;0.90;;;;;;;20.50;50.46;95989.50;4993880;28;20105;-61
2023/04/25 10:14:22;;;;;;;0.80;0.80;;;;;;;20.20;47.96;95941.69;4989461;28;20054;-61
2023/04/25 10:16:49;;;;;;;0.80;0.80;;;;;;;19.67;49.14;95914.72;5002140;28;20050;-60
2023/04/25 10:19:16;;;;;;;0.70;0.70;;;;;;;19.42;51.14;95870.69;5003320;28;20054;-60
2023/04/25 10:22:00;;;;;;;0.80;0.80;;;;;;;20.36;51.11;95972.41;5004322;28;20112;-61
2023/04/25 10:24:26;;;;;;;;;;;;;;;20.43;50.47;95960.88;4991493;28;20046;-62
2023/04/25 10:26:54;;;;;;;0.80;0.80;;;;;;;20.15;51.73;95894.47;4986083;28;19925;-60
2023/04/25 10:29:25;;;;;;;0.90;0.90;;;;;;;20.82;50.87;95943.19;5004206;28;20137;-62
2023/04/25 10:31:52;;;;;;;0.80;0.80;;;;;;;20.42;48.89;95936.78;4987418;28;20511;-62
2023/04/25 10:34:23;;;;;;;0.90;0.90;;;;;;;19.73;49.64;95808.94;4983885;28;20521;-61
2023/04/25 10:36:54;;;;;;;0.80;0.80;;;;;;;20.47;50.45;95936.22;4998327;28;20445;-63
2023/04/25 10:39:26;;;;;;;0.80;0.80;;;;;;;20.42;50.23;95976.94;5002349;28;20488;-65
2023/04/25 10:41:56;;;;;;;0.80;0.80;;;;;;;20.29;50.47;95928.44;5002957;28;20045;-62
2023/04/25 10:44:28;;;;;;;0.80;0.80;;;;;;;20.49;50.11;95925.25;5001219;28;20062;-61
2023/04/25 10:46:59;;;;;;;0.80;0.80;;;;;;;20.19;50.48;95923.22;4999564;28;20148;-61
2023/04/25 10:49:32;;;;;;;0.75;0.75;;;;;;;20.61;50.26;95916.69;4987386;28;20184;-61
2023/04/25 10:52:13;;;;;;;0.80;0.80;;;;;;;18.71;50.92;95619.88;5019037;28;20483;-61
2023/04/25 10:54:56;;;;;;;0.80;0.80;;;;;;;20.71;51.23;95914.72;4986402;28;20135;-61
2023/04/25 10:57:31;;;;;;;0.82;0.82;;;;;;;20.84;50.14;95901.31;4990189;28;20050;-62
2023/04/25 11:00:18;;;;;;;0.85;0.85;;;;;;;20.81;48.02;95896.59;5016267;28;20520;-62
2023/04/25 11:02:47;;;;;;;0.80;0.80;;;;;;;20.72;47.95;95916.28;5002641;28;20053;-59
2023/04/25 11:05:34;;;;;;;0.90;0.90;;;;;;;20.84;47.91;95923.81;4999188;28;20075;-60
2023/04/25 11:08:16;;;;;;;0.90;0.90;;;;;;;21.13;47.49;95906.56;5003003;28;20524;-61
2023/04/25 11:10:44;;;;;;;0.90;0.90;;;;;;;21.11;49.08;95892.94;4999559;28;20053;-62
2023/04/25 11:13:10;;;;;;;0.80;0.80;;;;;;;21.34;47.73;95895.16;5001560;28;20050;-59
2023/04/25 11:15:37;;;;;;;0.90;0.90;;;;;;;21.49;48.71;95901.75;5003434;28;20490;-59
2023/04/25 11:18:04;;;;;;;0.95;0.95;;;;;;;21.66;47.89;95883.28;5003634;28;20162;-62
2023/04/25 11:20:30;;;;;;;0.90;0.90;;;;;;;21.81;48.04;95895.53;5001796;28;20068;-62
2023/04/25 11:23:01;;;;;;;0.85;0.85;;;;;;;21.31;46.98;95862.28;4999523;28;20050;-61
2023/04/25 11:25:28;;;;;;;0.90;0.90;;;;;;;21.71;47.35;95890.31;5003401;28;20054;-62
2023/04/25 11:27:57;;;;;;;0.88;0.88;;;;;;;21.22;46.33;95869.94;5000094;28;20050;-62
2023/04/25 11:30:25;;;;;;;0.95;0.95;;;;;;;21.46;46.45;95871.69;4999898;28;20085;-60
2023/04/25 11:32:52;;;;;;;0.98;0.98;;;;;;;21.83;45.21;95861.97;5004869;28;20053;-61